Time;durP1;ratioP1;P1;durP2;ratioP2;P2;SDS_P1;SDS_P2;PMS_P1;PMS_P2;Temp;Humidity;BMP_temperature;BMP_pressure;BME280_temperature;BME280_humidity;BME280_pressure;Samples;Min_cycle;Max_cycle;Signal;HPM_P1;HPM_P2
2022/09/13 00:00:06;;;;;;;18.52;15.88;;;17.40;99.90;;;;;;4982640;28;20513;-82
2022/09/13 00:02:32;;;;;;;18.52;16.33;;;17.40;99.90;;;;;;5004972;28;20057;-82
2022/09/13 00:04:58;;;;;;;20.98;17.42;;;17.40;99.90;;;;;;4976522;28;20498;-82
2022/09/13 00:07:23;;;;;;;21.63;18.92;;;17.40;99.90;;;;;;4975142;28;20121;-81
2022/09/13 00:09:49;;;;;;;18.85;16.60;;;17.30;99.90;;;;;;4990290;28;20050;-82
2022/09/13 00:12:15;;;;;;;21.38;18.00;;;17.30;99.90;;;;;;5025142;28;20042;-82
2022/09/13 00:14:40;;;;;;;22.13;18.67;;;17.30;99.90;;;;;;4974145;28;20062;-82
2022/09/13 00:17:06;;;;;;;19.42;17.33;;;17.30;99.90;;;;;;4966987;28;20035;-82
2022/09/13 00:19:32;;;;;;;18.05;15.70;;;17.30;99.90;;;;;;4960070;28;20039;-82
2022/09/13 00:21:58;;;;;;;17.85;15.10;;;17.30;99.90;;;;;;4996553;28;20057;-81
2022/09/13 00:24:24;;;;;;;19.30;15.90;;;17.30;99.90;;;;;;4977868;28;20125;-82
2022/09/13 00:26:49;;;;;;;19.70;16.13;;;17.30;99.90;;;;;;4990942;28;20049;-81
2022/09/13 00:29:15;;;;;;;19.42;17.33;;;17.30;99.90;;;;;;4992311;28;20030;-83
2022/09/13 00:31:41;;;;;;;18.65;16.65;;;17.30;99.90;;;;;;4992061;28;20038;-82
2022/09/13 00:34:07;;;;;;;23.45;20.40;;;17.30;99.90;;;;;;4991791;28;20045;-82
2022/09/13 00:36:32;;;;;;;17.65;15.68;;;17.30;99.90;;;;;;4991498;28;20031;-82
2022/09/13 00:39:01;;;;;;;17.65;15.55;;;17.30;99.90;;;;;;4991948;28;20042;-82
2022/09/13 00:41:27;;;;;;;17.33;15.25;;;17.30;99.90;;;;;;5008492;28;20042;-82
2022/09/13 00:43:56;;;;;;;17.63;14.65;;;17.30;99.90;;;;;;5024977;28;20148;-81
2022/09/13 00:46:44;;;;;;;17.40;14.52;;;17.30;99.90;;;;;;4991673;28;20045;-81
2022/09/13 00:49:13;;;;;;;20.50;17.80;;;17.30;99.90;;;;;;4992317;28;20047;-81
2022/09/13 00:51:43;;;;;;;16.48;14.18;;;17.30;99.90;;;;;;4991134;28;20030;-82
2022/09/13 00:54:10;;;;;;;19.23;15.45;;;17.30;99.90;;;;;;4976218;28;20069;-80
2022/09/13 00:56:40;;;;;;;20.08;16.23;;;17.30;99.90;;;;;;5027232;28;20034;-81
2022/09/13 00:59:18;;;;;;;14.75;13.15;;;17.30;99.90;;;;;;5045012;28;20082;-82
2022/09/13 01:01:47;;;;;;;16.90;14.52;;;17.30;99.90;;;;;;5019195;28;20039;-81
2022/09/13 01:04:14;;;;;;;16.10;13.60;;;17.30;99.90;;;;;;5008449;28;20034;-82
2022/09/13 01:06:40;;;;;;;16.50;14.63;;;17.30;99.90;;;;;;5008642;28;20101;-82
2022/09/13 01:09:06;;;;;;;15.70;14.02;;;17.30;99.90;;;;;;5010479;28;20022;-81
2022/09/13 01:11:41;;;;;;;15.60;13.07;;;17.30;99.90;;;;;;5024948;28;20041;-81
2022/09/13 01:14:08;;;;;;;15.05;12.65;;;17.20;99.90;;;;;;5012845;28;20034;-81
2022/09/13 01:16:35;;;;;;;12.23;10.65;;;17.20;99.90;;;;;;5034921;28;20038;-82
2022/09/13 01:19:01;;;;;;;13.18;10.77;;;17.20;99.90;;;;;;5014902;28;20046;-82
2022/09/13 01:22:06;;;;;;;13.27;10.98;;;17.20;99.90;;;;;;4990189;28;20045;-81
2022/09/13 01:24:53;;;;;;;14.02;12.52;;;17.20;99.90;;;;;;5009322;28;20041;-81
2022/09/13 01:27:41;;;;;;;16.30;13.30;;;17.20;99.90;;;;;;5005038;28;20046;-82
2022/09/13 01:30:34;;;;;;;15.52;13.80;;;17.20;99.90;;;;;;5043268;28;20030;-82
2022/09/13 01:33:35;;;;;;;12.98;11.27;;;17.10;99.90;;;;;;5002980;28;20034;-81
2022/09/13 01:36:37;;;;;;;15.95;14.25;;;17.10;99.90;;;;;;5009860;28;20464;-81
2022/09/13 01:39:27;;;;;;;17.35;14.55;;;17.10;99.90;;;;;;5005335;28;20043;-81
2022/09/13 01:42:08;;;;;;;17.55;15.50;;;17.10;99.90;;;;;;5018577;28;20041;-82
2022/09/13 01:44:56;;;;;;;15.60;13.75;;;17.10;99.90;;;;;;5038090;28;20046;-81
2022/09/13 01:47:36;;;;;;;17.48;14.90;;;17.10;99.90;;;;;;5003829;28;20042;-81
2022/09/13 01:50:40;;;;;;;17.98;15.32;;;17.10;99.90;;;;;;4995958;28;20082;-82
2022/09/13 01:53:21;;;;;;;14.73;13.10;;;17.10;99.90;;;;;;4967445;28;20129;-80
2022/09/13 01:55:49;;;;;;;19.80;16.98;;;17.10;99.90;;;;;;4982736;28;20034;-80
2022/09/13 01:58:33;;;;;;;15.95;13.75;;;17.10;99.90;;;;;;4998364;28;20096;-79
2022/09/13 02:01:27;;;;;;;17.08;14.65;;;17.10;99.90;;;;;;5031119;28;20038;-80
2022/09/13 02:04:07;;;;;;;22.38;18.65;;;17.10;99.90;;;;;;5015191;28;20043;-80
2022/09/13 02:06:37;;;;;;;21.67;18.00;;;17.10;99.90;;;;;;4992507;28;20034;-80
2022/09/13 02:09:10;;;;;;;16.02;13.45;;;17.10;99.90;;;;;;5031283;28;20405;-80
2022/09/13 02:11:38;;;;;;;17.73;14.27;;;17.10;99.90;;;;;;4997741;28;20034;-80
2022/09/13 02:14:14;;;;;;;19.23;16.67;;;17.10;99.90;;;;;;4992996;28;20041;-81
2022/09/13 02:16:53;;;;;;;26.58;20.83;;;17.10;99.90;;;;;;5019786;28;20485;-81
2022/09/13 02:19:25;;;;;;;23.52;19.90;;;17.10;99.90;;;;;;4977966;28;20041;-81
2022/09/13 02:21:57;;;;;;;27.23;20.80;;;17.10;99.90;;;;;;4996947;28;20056;-81
2022/09/13 02:24:29;;;;;;;;;;;17.10;99.90;;;;;;4999422;28;20048;-80
2022/09/13 02:26:56;;;;;;;;;;;17.10;99.90;;;;;;4987146;28;20344;-81
2022/09/13 02:29:27;;;;;;;18.58;16.52;;;17.00;99.90;;;;;;5013883;28;19968;-81
2022/09/13 02:32:03;;;;;;;24.23;21.00;;;17.00;99.90;;;;;;4997793;28;20042;-81
2022/09/13 02:34:37;;;;;;;23.15;19.00;;;17.00;99.90;;;;;;4997611;28;20038;-81
2022/09/13 02:37:06;;;;;;;30.33;23.70;;;17.00;99.90;;;;;;5016095;28;20095;-81
2022/09/13 02:39:34;;;;;;;21.55;18.40;;;17.00;99.90;;;;;;5035403;28;20041;-81
2022/09/13 02:42:07;;;;;;;24.02;21.27;;;17.00;99.90;;;;;;5037588;28;20080;-81
2022/09/13 02:44:52;;;;;;;21.55;18.75;;;17.00;99.90;;;;;;5002540;28;20053;-81
2022/09/13 02:47:44;;;;;;;21.33;18.92;;;17.00;99.90;;;;;;4997388;28;20103;-81
2022/09/13 02:50:20;;;;;;;;;;;17.00;99.90;;;;;;4998325;28;20042;-80
2022/09/13 02:52:56;;;;;;;23.85;19.38;;;17.00;99.90;;;;;;4996970;28;20395;-80
2022/09/13 02:55:48;;;;;;;22.45;19.70;;;17.00;99.90;;;;;;5000279;28;20403;-81
2022/09/13 02:58:20;;;;;;;21.70;18.13;;;17.00;99.90;;;;;;4988595;28;20034;-81
2022/09/13 03:00:46;;;;;;;27.48;22.48;;;17.00;99.90;;;;;;4993898;28;20049;-80
2022/09/13 03:03:14;;;;;;;23.80;19.98;;;17.00;99.90;;;;;;4984505;28;20042;-81
2022/09/13 03:05:41;;;;;;;23.35;20.70;;;17.10;99.90;;;;;;5017836;28;20042;-81
2022/09/13 03:08:09;;;;;;;24.88;22.02;;;17.00;99.90;;;;;;4980924;28;20060;-81
2022/09/13 03:10:41;;;;;;;30.75;26.33;;;17.00;99.90;;;;;;4979019;28;20113;-81
2022/09/13 03:13:15;;;;;;;25.58;22.35;;;17.10;99.90;;;;;;4981738;28;20031;-81
2022/09/13 03:15:53;;;;;;;26.25;22.30;;;17.10;99.90;;;;;;5015305;28;20085;-80
2022/09/13 03:18:52;;;;;;;25.23;21.00;;;17.00;99.90;;;;;;4992779;28;20481;-80
2022/09/13 03:21:39;;;;;;;29.80;23.98;;;17.10;99.90;;;;;;5018470;28;20560;-81
2022/09/13 03:24:45;;;;;;;34.22;26.50;;;17.10;99.90;;;;;;5020093;28;20065;-81
2022/09/13 03:27:43;;;;;;;26.63;21.52;;;17.10;99.90;;;;;;5012137;28;20093;-80
2022/09/13 03:30:13;;;;;;;27.83;23.48;;;17.00;99.90;;;;;;5008529;28;20431;-81
2022/09/13 03:33:03;;;;;;;25.17;22.33;;;17.00;99.90;;;;;;4992607;28;20482;-81
2022/09/13 03:35:44;;;;;;;26.88;22.42;;;17.10;99.90;;;;;;5009499;28;20477;-80
2022/09/13 03:38:20;;;;;;;33.97;26.13;;;17.10;99.90;;;;;;4989423;28;20050;-81
2022/09/13 03:41:01;;;;;;;27.00;22.77;;;17.10;99.90;;;;;;5008959;28;20081;-81
2022/09/13 03:43:35;;;;;;;31.98;25.58;;;17.10;99.90;;;;;;5009984;28;20041;-80
2022/09/13 03:46:14;;;;;;;27.42;23.40;;;17.00;99.90;;;;;;4993909;28;20493;-81
2022/09/13 03:48:42;;;;;;;27.27;22.48;;;17.10;99.90;;;;;;5024889;28;20060;-80
2022/09/13 03:51:09;;;;;;;32.72;26.15;;;17.10;99.90;;;;;;5010444;28;20139;-81
2022/09/13 03:53:39;;;;;;;26.42;22.25;;;17.10;99.90;;;;;;5017211;28;20496;-80
2022/09/13 03:56:16;;;;;;;24.75;21.13;;;17.10;99.90;;;;;;4996391;28;20489;-80
2022/09/13 03:58:42;;;;;;;32.30;24.77;;;17.10;99.90;;;;;;5017992;28;20156;-80
2022/09/13 04:01:11;;;;;;;23.92;20.65;;;17.10;99.90;;;;;;5028920;28;20125;-81
2022/09/13 04:03:38;;;;;;;28.10;24.33;;;17.10;99.90;;;;;;5011692;28;20037;-80
2022/09/13 04:06:04;;;;;;;30.60;25.45;;;17.10;99.90;;;;;;4996341;28;20112;-80
2022/09/13 04:08:31;;;;;;;28.67;23.00;;;17.10;99.90;;;;;;4960129;28;20045;-80
2022/09/13 04:10:57;;;;;;;25.70;21.50;;;17.10;99.90;;;;;;5008795;28;20093;-80
2022/09/13 04:13:23;;;;;;;29.67;24.38;;;17.10;99.90;;;;;;5028559;28;20037;-80
2022/09/13 04:15:49;;;;;;;22.95;19.95;;;17.20;99.90;;;;;;4995743;28;20064;-81
2022/09/13 04:18:15;;;;;;;28.60;23.42;;;17.20;99.90;;;;;;4984741;28;20042;-80
2022/09/13 04:20:41;;;;;;;31.48;24.92;;;17.20;99.90;;;;;;4992917;28;20117;-80
2022/09/13 04:23:06;;;;;;;35.55;26.30;;;17.20;99.90;;;;;;4998412;28;20121;-81
2022/09/13 04:25:32;;;;;;;29.77;23.13;;;17.20;99.90;;;;;;5008172;28;20045;-80
2022/09/13 04:28:01;;;;;;;28.55;22.80;;;17.20;99.90;;;;;;4992224;28;20045;-81
2022/09/13 04:30:27;;;;;;;24.05;20.35;;;17.20;99.90;;;;;;5006029;28;20040;-80
2022/09/13 04:32:55;;;;;;;22.33;19.92;;;17.20;99.90;;;;;;5011859;28;20481;-81
2022/09/13 04:35:21;;;;;;;25.27;21.02;;;17.20;99.90;;;;;;4992285;28;20034;-80
2022/09/13 04:37:47;;;;;;;32.08;25.20;;;17.20;99.90;;;;;;5019497;28;20041;-80
2022/09/13 04:40:13;;;;;;;28.08;22.13;;;17.20;99.90;;;;;;4982785;28;20443;-80
2022/09/13 04:42:39;;;;;;;22.65;19.00;;;17.20;99.90;;;;;;4994888;28;20084;-80
2022/09/13 04:45:05;;;;;;;22.88;19.63;;;17.20;99.90;;;;;;4995241;28;20073;-80
2022/09/13 04:47:31;;;;;;;25.85;21.95;;;17.20;99.90;;;;;;4979464;28;20499;-80
2022/09/13 04:49:57;;;;;;;28.63;23.05;;;17.20;99.90;;;;;;4991299;28;20133;-80
2022/09/13 04:52:23;;;;;;;25.38;20.45;;;17.30;99.90;;;;;;4994731;28;20508;-80
2022/09/13 04:54:48;;;;;;;23.38;20.10;;;17.30;99.90;;;;;;4999083;28;20489;-81
2022/09/13 04:57:18;;;;;;;29.40;21.92;;;17.30;99.90;;;;;;4975188;28;20508;-81
2022/09/13 04:59:43;;;;;;;25.00;20.80;;;17.30;99.90;;;;;;4986750;28;20089;-80
2022/09/13 05:02:09;;;;;;;23.33;19.02;;;17.30;99.90;;;;;;4975781;28;20171;-80
2022/09/13 05:04:35;;;;;;;23.95;20.80;;;17.40;99.90;;;;;;4989819;28;20030;-80
2022/09/13 05:07:01;;;;;;;23.88;20.55;;;17.40;99.90;;;;;;5030922;28;20485;-81
2022/09/13 05:09:27;;;;;;;22.20;18.88;;;17.40;99.90;;;;;;4995546;28;20088;-81
2022/09/13 05:11:53;;;;;;;23.23;19.50;;;17.40;99.90;;;;;;4995498;28;20046;-81
2022/09/13 05:14:18;;;;;;;25.27;19.45;;;17.40;99.90;;;;;;4997304;28;20136;-80
2022/09/13 05:16:44;;;;;;;23.33;19.60;;;17.40;99.90;;;;;;5024699;28;20050;-81
2022/09/13 05:19:12;;;;;;;29.92;24.15;;;17.40;99.90;;;;;;5029293;28;20209;-80
2022/09/13 05:21:37;;;;;;;28.35;22.48;;;17.40;99.90;;;;;;5022247;28;20459;-80
2022/09/13 05:24:03;;;;;;;24.75;20.42;;;17.40;99.90;;;;;;4998581;28;20049;-80
2022/09/13 05:26:30;;;;;;;29.73;23.00;;;17.40;99.90;;;;;;4976512;28;20034;-80
2022/09/13 05:28:57;;;;;;;24.30;21.17;;;17.50;99.90;;;;;;4992056;28;20054;-81
2022/09/13 05:31:27;;;;;;;22.70;18.77;;;17.50;99.90;;;;;;5017832;28;20034;-80
2022/09/13 05:33:59;;;;;;;27.45;22.90;;;17.40;99.90;;;;;;4998893;28;20042;-81
2022/09/13 05:36:25;;;;;;;27.13;22.05;;;17.50;99.90;;;;;;4984866;28;20103;-80
2022/09/13 05:38:52;;;;;;;27.20;20.52;;;17.50;99.90;;;;;;5031454;28;20046;-80
2022/09/13 05:41:18;;;;;;;27.08;22.52;;;17.60;99.90;;;;;;4998656;28;20057;-80
2022/09/13 05:43:44;;;;;;;23.80;19.88;;;17.50;99.90;;;;;;4998545;28;20038;-80
2022/09/13 05:46:15;;;;;;;26.10;21.95;;;17.60;99.90;;;;;;5030678;28;20049;-80
2022/09/13 05:48:41;;;;;;;25.88;21.08;;;17.60;99.90;;;;;;4987251;28;20554;-79
2022/09/13 05:51:13;;;;;;;25.48;21.60;;;17.60;99.90;;;;;;5019796;28;20501;-81
2022/09/13 05:53:41;;;;;;;25.23;20.98;;;17.60;99.90;;;;;;5029310;28;20080;-81
2022/09/13 05:56:08;;;;;;;23.38;20.13;;;17.70;99.90;;;;;;5014321;28;20034;-80
2022/09/13 05:58:38;;;;;;;29.98;22.40;;;17.60;99.90;;;;;;5015386;28;20793;-81
2022/09/13 06:01:04;;;;;;;28.23;21.88;;;17.70;99.90;;;;;;4988560;28;20045;-80
2022/09/13 06:03:30;;;;;;;21.95;18.92;;;17.70;99.90;;;;;;5030647;28;20037;-80
2022/09/13 06:05:57;;;;;;;19.98;17.15;;;17.70;99.90;;;;;;4997808;28;20034;-81
2022/09/13 06:08:28;;;;;;;21.95;17.73;;;17.70;99.90;;;;;;4989917;28;20065;-78
2022/09/13 06:11:00;;;;;;;21.80;18.60;;;17.70;99.90;;;;;;4988667;28;20089;-79
2022/09/13 06:13:26;;;;;;;23.25;18.30;;;17.70;99.90;;;;;;5028582;28;20120;-78
2022/09/13 06:15:54;;;;;;;19.60;16.80;;;17.70;99.90;;;;;;4971061;28;20050;-78
2022/09/13 06:18:21;;;;;;;18.88;16.38;;;17.80;99.90;;;;;;4994063;28;20066;-79
2022/09/13 06:20:47;;;;;;;23.98;18.63;;;17.80;99.90;;;;;;5013852;28;20046;-78
2022/09/13 06:23:14;;;;;;;19.20;15.63;;;17.80;99.90;;;;;;5015648;28;20041;-78
2022/09/13 06:25:40;;;;;;;19.60;14.90;;;17.80;99.90;;;;;;5012812;28;20103;-78
2022/09/13 06:28:06;;;;;;;18.88;14.93;;;17.80;99.90;;;;;;4997153;28;20123;-79
2022/09/13 06:30:31;;;;;;;19.33;16.08;;;17.80;99.90;;;;;;4969778;28;20050;-78
2022/09/13 06:32:57;;;;;;;16.23;13.80;;;17.80;99.90;;;;;;4995724;28;20042;-79
2022/09/13 06:35:23;;;;;;;22.83;17.33;;;17.80;99.90;;;;;;4992193;28;20069;-78
2022/09/13 06:37:49;;;;;;;19.08;16.55;;;17.80;99.90;;;;;;4996857;28;20037;-78
2022/09/13 06:40:15;;;;;;;19.58;16.08;;;17.80;99.90;;;;;;5030590;28;20104;-78
2022/09/13 06:42:41;;;;;;;21.17;16.02;;;17.90;99.90;;;;;;5030013;28;20068;-78
2022/09/13 06:45:07;;;;;;;16.35;12.93;;;17.90;99.90;;;;;;4991505;28;20038;-77
2022/09/13 06:47:33;;;;;;;16.98;14.00;;;17.90;99.90;;;;;;4981493;28;20042;-78
2022/09/13 06:49:59;;;;;;;15.27;9.45;;;17.90;99.90;;;;;;4987077;28;20042;-79
2022/09/13 06:52:26;;;;;;;13.45;7.70;;;17.90;99.90;;;;;;4996561;28;20038;-77
2022/09/13 06:54:52;;;;;;;10.90;7.93;;;17.90;99.90;;;;;;4986341;28;20061;-78
2022/09/13 06:57:19;;;;;;;12.32;7.10;;;17.90;99.90;;;;;;5029844;28;20042;-79
2022/09/13 06:59:45;;;;;;;10.38;6.88;;;17.90;99.90;;;;;;4997659;28;20549;-79
2022/09/13 07:02:13;;;;;;;9.65;6.60;;;17.90;99.90;;;;;;5012334;28;20169;-79
2022/09/13 07:04:39;;;;;;;11.18;6.75;;;17.90;99.90;;;;;;5012091;28;20571;-79
2022/09/13 07:07:04;;;;;;;11.20;6.60;;;17.90;99.90;;;;;;4981791;28;20109;-79
2022/09/13 07:09:30;;;;;;;13.23;7.63;;;17.90;99.90;;;;;;5001357;28;20042;-78
2022/09/13 07:11:56;;;;;;;12.60;6.95;;;17.90;99.90;;;;;;4984395;28;20117;-77
2022/09/13 07:14:31;;;;;;;10.77;7.03;;;17.90;99.90;;;;;;4998220;28;20066;-77
2022/09/13 07:16:57;;;;;;;11.13;6.10;;;17.80;99.90;;;;;;4988418;28;20041;-79
2022/09/13 07:19:27;;;;;;;8.50;5.38;;;17.80;99.90;;;;;;5028058;28;20042;-79
2022/09/13 07:21:54;;;;;;;9.80;5.07;;;17.90;99.90;;;;;;5009726;28;20049;-78
2022/09/13 07:24:22;;;;;;;8.73;5.20;;;17.90;99.90;;;;;;4996979;28;20463;-78
2022/09/13 07:26:48;;;;;;;10.20;5.47;;;17.90;99.90;;;;;;5015408;28;20073;-79
2022/09/13 07:29:18;;;;;;;7.40;4.40;;;17.90;99.90;;;;;;5031082;28;20045;-81
2022/09/13 07:31:46;;;;;;;7.68;4.45;;;17.80;99.90;;;;;;4977498;28;20052;-80
2022/09/13 07:34:23;;;;;;;8.27;4.35;;;17.80;99.90;;;;;;4987820;28;20524;-81
2022/09/13 07:36:51;;;;;;;10.57;5.00;;;17.90;99.90;;;;;;4999398;28;20103;-81
2022/09/13 07:39:17;;;;;;;10.32;4.07;;;18.00;99.90;;;;;;4989819;28;20050;-81
2022/09/13 07:41:44;;;;;;;8.82;3.72;;;18.00;99.90;;;;;;5030547;28;20140;-81
2022/09/13 07:44:10;;;;;;;7.90;3.13;;;18.10;99.90;;;;;;4988455;28;20112;-80
2022/09/13 07:46:40;;;;;;;6.97;2.90;;;18.10;99.90;;;;;;5016017;28;20045;-81
2022/09/13 07:49:06;;;;;;;7.03;2.85;;;18.20;99.90;;;;;;5000452;28;20524;-81
2022/09/13 07:51:35;;;;;;;7.53;2.47;;;18.20;99.90;;;;;;4999346;28;20042;-81
2022/09/13 07:54:03;;;;;;;7.57;2.80;;;18.30;99.90;;;;;;5028359;28;20046;-80
2022/09/13 07:56:37;;;;;;;9.98;2.75;;;18.40;99.90;;;;;;5005017;28;20041;-81
2022/09/13 07:59:05;;;;;;;8.27;2.78;;;18.50;99.90;;;;;;4998350;28;20087;-81
2022/09/13 08:01:36;;;;;;;8.07;2.88;;;18.50;99.90;;;;;;5021410;28;20053;-81
2022/09/13 08:04:04;;;;;;;7.90;2.38;;;18.50;99.90;;;;;;4997787;28;20069;-81
2022/09/13 08:06:32;;;;;;;8.07;2.70;;;18.50;99.90;;;;;;5002509;28;20046;-81
2022/09/13 08:08:58;;;;;;;6.60;3.00;;;18.60;99.90;;;;;;5001231;28;20042;-81
2022/09/13 08:11:30;;;;;;;9.25;2.70;;;18.60;99.90;;;;;;5029380;28;20088;-81
2022/09/13 08:13:55;;;;;;;8.30;2.50;;;18.70;99.90;;;;;;5010623;28;20034;-81
2022/09/13 08:16:23;;;;;;;7.63;2.17;;;18.70;99.90;;;;;;4972168;28;20046;-81
2022/09/13 08:18:51;;;;;;;8.40;2.03;;;18.80;99.90;;;;;;4977710;28;20045;-81
2022/09/13 08:21:16;;;;;;;9.15;2.00;;;18.90;99.90;;;;;;5037111;28;20048;-81
2022/09/13 08:23:42;;;;;;;8.98;2.00;;;19.00;99.90;;;;;;5025446;28;20489;-81
2022/09/13 08:26:09;;;;;;;6.30;1.77;;;19.00;99.90;;;;;;4997883;28;20510;-81
2022/09/13 08:28:36;;;;;;;8.13;2.05;;;19.10;99.90;;;;;;4995311;28;20486;-83
2022/09/13 08:31:04;;;;;;;8.02;1.77;;;19.20;99.90;;;;;;4991667;28;20124;-83
2022/09/13 08:33:31;;;;;;;7.57;1.90;;;19.20;99.90;;;;;;5025360;28;20486;-83
2022/09/13 08:35:57;;;;;;;6.45;1.60;;;19.30;99.90;;;;;;5013211;28;20048;-83
2022/09/13 08:38:23;;;;;;;9.52;1.60;;;19.30;99.90;;;;;;5006801;28;20045;-83
2022/09/13 08:40:54;;;;;;;5.53;1.50;;;19.40;99.90;;;;;;4990967;28;20042;-82
2022/09/13 08:43:28;;;;;;;6.00;1.40;;;19.40;99.90;;;;;;4990694;28;20494;-82
2022/09/13 08:46:31;;;;;;;7.35;1.50;;;19.50;99.90;;;;;;4987269;28;20042;-83
2022/09/13 08:49:14;;;;;;;5.80;1.40;;;19.50;99.90;;;;;;5024880;28;20045;-83
2022/09/13 08:51:53;;;;;;;8.85;1.42;;;19.60;99.90;;;;;;4980258;28;20072;-82
2022/09/13 08:54:19;;;;;;;7.10;1.55;;;19.70;99.90;;;;;;4979040;28;20547;-82
2022/09/13 08:56:52;;;;;;;7.63;1.70;;;19.80;99.90;;;;;;5025985;28;20041;-83
2022/09/13 09:00:04;;;;;;;6.20;1.35;;;19.90;99.90;;;;;;4997351;28;20046;-83
2022/09/13 09:03:09;;;;;;;6.13;1.40;;;20.00;99.90;;;;;;5028253;28;20489;-83
2022/09/13 09:05:46;;;;;;;5.38;1.20;;;20.00;99.90;;;;;;4979438;28;20037;-81
2022/09/13 09:08:41;;;;;;;3.92;1.10;;;19.80;99.90;;;;;;4987679;28;20046;-81
2022/09/13 09:11:14;;;;;;;6.43;1.40;;;19.70;99.90;;;;;;4996382;28;20565;-81
2022/09/13 09:14:17;;;;;;;5.63;1.17;;;19.40;99.90;;;;;;5008108;28;20049;-81
2022/09/13 09:16:51;;;;;;;5.43;1.20;;;19.50;99.90;;;;;;4983291;28;20528;-81
2022/09/13 09:19:29;;;;;;;4.82;1.17;;;19.60;99.90;;;;;;5028169;28;20513;-81
2022/09/13 09:21:55;;;;;;;5.10;1.30;;;19.70;99.90;;;;;;4975894;28;20045;-81
2022/09/13 09:24:24;;;;;;;5.10;1.13;;;19.90;99.90;;;;;;5029538;28;20046;-81
2022/09/13 09:26:57;;;;;;;5.03;1.10;;;20.20;99.90;;;;;;5008190;28;20544;-81
2022/09/13 09:29:27;;;;;;;5.28;1.13;;;20.30;99.90;;;;;;4994620;28;20046;-81
2022/09/13 09:32:24;;;;;;;5.15;1.20;;;20.50;99.90;;;;;;5019816;28;20099;-81
2022/09/13 09:35:21;;;;;;;5.72;1.20;;;20.90;99.90;;;;;;5000519;28;20054;-81
2022/09/13 09:38:11;;;;;;;5.32;1.20;;;20.70;99.90;;;;;;4985428;28;20042;-81
2022/09/13 09:40:37;;;;;;;6.80;1.33;;;20.50;99.90;;;;;;4995285;28;20520;-81
2022/09/13 09:43:23;;;;;;;4.60;1.10;;;20.30;99.90;;;;;;4995382;28;20038;-81
2022/09/13 09:45:52;;;;;;;5.07;0.90;;;20.20;99.90;;;;;;5018993;28;20440;-82
2022/09/13 09:48:25;;;;;;;5.25;1.00;;;20.20;99.90;;;;;;4992963;28;20045;-81
2022/09/13 09:50:57;;;;;;;5.70;1.15;;;20.20;99.90;;;;;;4998257;28;20046;-81
2022/09/13 09:53:34;;;;;;;7.15;1.20;;;20.40;99.90;;;;;;4994573;28;20481;-81
2022/09/13 09:56:31;;;;;;;5.65;0.98;;;20.70;99.90;;;;;;4999485;28;20038;-81
2022/09/13 09:58:58;;;;;;;5.57;1.00;;;21.00;99.90;;;;;;4999435;28;20048;-81
2022/09/13 10:01:31;;;;;;;3.83;1.00;;;21.30;99.90;;;;;;5001582;28;20561;-81
2022/09/13 10:04:08;;;;;;;4.40;1.00;;;21.60;99.90;;;;;;4999104;28;20121;-81
2022/09/13 10:06:37;;;;;;;4.70;1.02;;;21.80;99.90;;;;;;5034597;28;20133;-81
2022/09/13 10:09:05;;;;;;;5.28;0.90;;;21.70;99.90;;;;;;5037568;28;20052;-81
2022/09/13 10:11:56;;;;;;;3.17;0.88;;;21.60;99.90;;;;;;5002152;28;20104;-81
2022/09/13 10:14:28;;;;;;;6.85;1.10;;;21.40;99.90;;;;;;5008223;28;20060;-81
2022/09/13 10:17:22;;;;;;;5.18;0.90;;;21.40;99.90;;;;;;4991982;28;20091;-81
2022/09/13 10:19:58;;;;;;;4.95;0.82;;;21.40;99.90;;;;;;4993357;28;20128;-82
2022/09/13 10:22:25;;;;;;;5.45;0.90;;;21.60;99.90;;;;;;4997256;28;20092;-81
2022/09/13 10:24:52;;;;;;;4.07;0.80;;;21.80;99.50;;;;;;4987522;28;20041;-82
2022/09/13 10:27:41;;;;;;;5.20;1.00;;;22.00;99.90;;;;;;4997870;28;20054;-82
2022/09/13 10:30:42;;;;;;;5.22;0.90;;;22.10;99.20;;;;;;5001250;28;20393;-81
2022/09/13 10:33:34;;;;;;;6.30;1.00;;;22.40;99.90;;;;;;4997653;28;20394;-80
2022/09/13 10:36:02;;;;;;;;;;;22.50;99.50;;;;;;5014455;28;20073;-81
2022/09/13 10:38:43;;;;;;;4.18;1.00;;;22.50;99.00;;;;;;4999368;28;19978;-83
2022/09/13 10:41:20;;;;;;;3.97;1.00;;;22.30;97.50;;;;;;4997803;28;20046;-84
2022/09/13 10:43:47;;;;;;;5.00;1.00;;;22.30;97.70;;;;;;4996886;28;20041;-82
2022/09/13 10:46:22;;;;;;;4.53;0.90;;;22.20;95.80;;;;;;5000552;28;20050;-82
2022/09/13 10:48:54;;;;;;;8.23;1.00;;;22.20;95.50;;;;;;5035873;28;20236;-82
2022/09/13 10:51:26;;;;;;;3.90;0.90;;;22.30;95.90;;;;;;4995999;28;20141;-83
2022/09/13 10:54:14;;;;;;;6.72;1.00;;;22.40;96.10;;;;;;4993950;28;20048;-83
2022/09/13 10:56:41;;;;;;;4.55;0.90;;;22.40;94.60;;;;;;4997423;28;20491;-83
2022/09/13 10:59:26;;;;;;;5.22;1.00;;;22.50;96.20;;;;;;4982747;28;20052;-83
2022/09/13 11:02:12;;;;;;;4.53;0.98;;;22.50;95.40;;;;;;5014246;28;20556;-83
2022/09/13 11:05:05;;;;;;;5.60;1.17;;;22.60;95.00;;;;;;4997360;28;20073;-83
2022/09/13 11:07:41;;;;;;;3.80;0.82;;;22.40;94.50;;;;;;5001529;28;20045;-83
2022/09/13 11:10:10;;;;;;;6.45;1.10;;;22.30;94.10;;;;;;4996418;28;20049;-83
2022/09/13 11:13:14;;;;;;;5.28;0.95;;;22.30;92.80;;;;;;4998105;28;21569;-83
2022/09/13 11:15:52;;;;;;;4.65;0.90;;;22.20;93.30;;;;;;4994514;28;20065;-83
2022/09/13 11:18:47;;;;;;;4.63;0.90;;;22.40;94.30;;;;;;5002443;28;20564;-83
2022/09/13 11:21:41;;;;;;;4.35;1.00;;;22.70;94.20;;;;;;5003894;28;20084;-83
2022/09/13 11:24:13;;;;;;;5.88;1.10;;;22.90;91.70;;;;;;4950814;28;20050;-84
2022/09/13 11:27:08;;;;;;;6.40;0.90;;;22.80;90.50;;;;;;5015480;28;20089;-82
2022/09/13 11:29:57;;;;;;;5.28;0.93;;;22.80;90.80;;;;;;5040410;28;20025;-82
2022/09/13 11:32:38;;;;;;;5.13;1.00;;;22.80;90.30;;;;;;5027023;28;20054;-82
2022/09/13 11:35:09;;;;;;;4.05;0.95;;;22.90;89.00;;;;;;5019712;28;20045;-82
2022/09/13 11:37:56;;;;;;;5.60;0.90;;;22.80;88.80;;;;;;5038349;28;20026;-82
2022/09/13 11:40:21;;;;;;;6.60;1.10;;;22.70;90.00;;;;;;5039820;28;20033;-82
2022/09/13 11:43:17;;;;;;;4.22;0.90;;;22.80;89.50;;;;;;5021932;28;20036;-82
2022/09/13 11:45:46;;;;;;;5.50;0.90;;;22.70;87.20;;;;;;5020831;28;20034;-82
2022/09/13 11:48:49;;;;;;;5.72;0.98;;;22.60;87.30;;;;;;5023184;28;20057;-82
2022/09/13 11:51:52;;;;;;;5.25;0.90;;;22.40;89.00;;;;;;5021309;28;20056;-82
2022/09/13 11:54:26;;;;;;;6.68;1.25;;;22.30;90.60;;;;;;5024408;28;20045;-82
2022/09/13 11:57:00;;;;;;;6.93;1.00;;;22.00;90.10;;;;;;5037148;28;20033;-82
2022/09/13 11:59:39;;;;;;;5.35;1.00;;;22.10;90.40;;;;;;5024086;28;20018;-82
2022/09/13 12:02:34;;;;;;;5.65;1.20;;;22.20;90.40;;;;;;5022012;28;20033;-82
2022/09/13 12:05:20;;;;;;;6.20;1.10;;;22.10;90.20;;;;;;5005000;28;20042;-82
2022/09/13 12:07:58;;;;;;;6.05;1.08;;;22.20;90.40;;;;;;5020327;28;20088;-82
2022/09/13 12:10:31;;;;;;;7.75;1.20;;;22.20;90.30;;;;;;5021110;28;20033;-82
2022/09/13 12:13:00;;;;;;;4.75;1.00;;;22.30;90.30;;;;;;5033319;28;20022;-82
2022/09/13 12:15:40;;;;;;;6.07;1.00;;;22.40;90.70;;;;;;5021235;28;20041;-82
2022/09/13 12:18:39;;;;;;;5.63;1.00;;;22.50;89.30;;;;;;5014915;28;20046;-83
2022/09/13 12:21:06;;;;;;;8.55;1.30;;;22.60;89.40;;;;;;4983720;28;20177;-82
2022/09/13 12:23:55;;;;;;;5.88;1.00;;;22.60;89.10;;;;;;5014713;28;20568;-82
2022/09/13 12:26:45;;;;;;;6.38;1.10;;;22.60;86.90;;;;;;5002963;28;20076;-82
2022/09/13 12:29:13;;;;;;;5.97;1.10;;;22.60;86.70;;;;;;4994375;28;20049;-82
2022/09/13 12:31:39;;;;;;;5.47;0.98;;;22.60;86.70;;;;;;5008394;28;20548;-82
2022/09/13 12:34:09;;;;;;;6.05;1.20;;;22.60;87.00;;;;;;4973771;28;20128;-82
2022/09/13 12:36:55;;;;;;;7.88;1.13;;;22.70;88.10;;;;;;4995457;28;20037;-83
2022/09/13 12:39:37;;;;;;;4.82;0.98;;;22.80;86.10;;;;;;4991922;28;20127;-83
2022/09/13 12:42:17;;;;;;;4.28;1.00;;;22.80;85.20;;;;;;5000689;28;20544;-82
2022/09/13 12:44:49;;;;;;;6.47;1.10;;;22.80;86.30;;;;;;4980455;28;20060;-82
2022/09/13 12:47:21;;;;;;;6.10;1.15;;;22.70;85.40;;;;;;4998855;28;20116;-82
2022/09/13 12:50:08;;;;;;;5.85;1.10;;;22.70;86.90;;;;;;4991089;28;20080;-82
2022/09/13 12:53:07;;;;;;;5.57;1.13;;;22.70;89.10;;;;;;5032451;28;20049;-82
2022/09/13 12:55:55;;;;;;;6.00;1.10;;;22.90;88.40;;;;;;4939879;28;20054;-82
2022/09/13 12:59:09;;;;;;;7.47;1.05;;;23.00;85.00;;;;;;4971163;28;20054;-82
2022/09/13 13:01:36;;;;;;;5.47;0.90;;;23.00;85.50;;;;;;4969936;28;20496;-82
2022/09/13 13:04:33;;;;;;;5.63;1.10;;;23.00;86.40;;;;;;4997819;28;20062;-82
2022/09/13 13:07:20;;;;;;;6.38;1.25;;;22.80;85.10;;;;;;4969261;28;20100;-82
2022/09/13 13:09:55;;;;;;;7.75;1.20;;;22.60;86.60;;;;;;4994230;28;20042;-82
2022/09/13 13:12:39;;;;;;;7.95;1.23;;;22.50;87.40;;;;;;4994797;28;20401;-82